sensor_id;sensor_type;location;lat;lon;timestamp;pressure;altitude;pressure_sealevel;temperature;humidity
13209;BME280;6669;42.678;23.332;2023-08-06T00:01:08;93447.41;;;17.74;100.00
13209;BME280;6669;42.678;23.332;2023-08-06T00:03:36;93413.72;;;17.93;100.00
13209;BME280;6669;42.678;23.332;2023-08-06T00:06:06;93426.94;;;17.98;100.00
13209;BME280;6669;42.678;23.332;2023-08-06T00:08:34;93463.69;;;18.15;100.00
13209;BME280;6669;42.678;23.332;2023-08-06T00:11:02;93463.72;;;18.20;100.00
13209;BME280;6669;42.678;23.332;2023-08-06T00:13:30;93468.81;;;18.32;100.00
13209;BME280;6669;42.678;23.332;2023-08-06T00:16:08;93467.84;;;18.38;100.00
13209;BME280;6669;42.678;23.332;2023-08-06T00:18:36;93443.50;;;18.53;100.00
13209;BME280;6669;42.678;23.332;2023-08-06T00:21:06;93422.19;;;18.55;100.00
13209;BME280;6669;42.678;23.332;2023-08-06T00:23:34;93426.66;;;18.54;100.00
13209;BME280;6669;42.678;23.332;2023-08-06T00:26:02;93448.50;;;18.55;100.00
13209;BME280;6669;42.678;23.332;2023-08-06T00:28:30;93450.94;;;18.61;100.00
13209;BME280;6669;42.678;23.332;2023-08-06T00:30:58;93450.69;;;18.63;100.00
13209;BME280;6669;42.678;23.332;2023-08-06T00:33:26;93438.38;;;18.69;100.00
13209;BME280;6669;42.678;23.332;2023-08-06T00:35:54;93421.19;;;18.61;100.00
13209;BME280;6669;42.678;23.332;2023-08-06T00:38:23;93435.19;;;18.67;100.00
13209;BME280;6669;42.678;23.332;2023-08-06T00:40:51;93432.00;;;18.59;100.00
13209;BME280;6669;42.678;23.332;2023-08-06T00:43:20;93421.19;;;18.61;100.00
13209;BME280;6669;42.678;23.332;2023-08-06T00:45:48;93421.50;;;18.65;100.00
13209;BME280;6669;42.678;23.332;2023-08-06T00:48:16;93416.47;;;18.63;100.00
13209;BME280;6669;42.678;23.332;2023-08-06T00:50:45;93415.97;;;18.66;100.00
13209;BME280;6669;42.678;23.332;2023-08-06T00:53:13;93412.28;;;18.62;100.00
13209;BME280;6669;42.678;23.332;2023-08-06T00:55:44;93423.91;;;18.71;100.00
13209;BME280;6669;42.678;23.332;2023-08-06T00:58:12;93422.28;;;18.65;100.00
13209;BME280;6669;42.678;23.332;2023-08-06T01:00:40;93405.94;;;18.63;100.00
13209;BME280;6669;42.678;23.332;2023-08-06T01:03:09;93400.44;;;18.65;100.00
13209;BME280;6669;42.678;23.332;2023-08-06T01:05:37;93393.88;;;18.67;100.00
13209;BME280;6669;42.678;23.332;2023-08-06T01:08:18;93373.09;;;18.71;100.00
13209;BME280;6669;42.678;23.332;2023-08-06T01:10:56;93372.63;;;18.79;100.00
13209;BME280;6669;42.678;23.332;2023-08-06T01:13:32;93376.03;;;18.79;100.00
13209;BME280;6669;42.678;23.332;2023-08-06T01:16:03;93384.16;;;18.73;100.00
13209;BME280;6669;42.678;23.332;2023-08-06T01:18:33;93386.81;;;18.73;100.00
13209;BME280;6669;42.678;23.332;2023-08-06T01:21:03;93381.84;;;18.82;100.00
13209;BME280;6669;42.678;23.332;2023-08-06T01:23:31;93374.78;;;18.87;100.00
13209;BME280;6669;42.678;23.332;2023-08-06T01:26:11;93370.56;;;18.86;100.00
13209;BME280;6669;42.678;23.332;2023-08-06T01:28:48;93360.25;;;18.79;100.00
13209;BME280;6669;42.678;23.332;2023-08-06T01:31:22;93368.91;;;18.70;100.00
13209;BME280;6669;42.678;23.332;2023-08-06T01:33:53;93363.59;;;18.65;100.00
13209;BME280;6669;42.678;23.332;2023-08-06T01:36:23;93356.63;;;18.48;100.00
13209;BME280;6669;42.678;23.332;2023-08-06T01:38:51;93356.09;;;18.46;100.00
13209;BME280;6669;42.678;23.332;2023-08-06T01:41:19;93352.94;;;18.49;100.00
13209;BME280;6669;42.678;23.332;2023-08-06T01:43:47;93352.75;;;18.56;100.00
13209;BME280;6669;42.678;23.332;2023-08-06T01:46:15;93362.38;;;18.45;100.00
13209;BME280;6669;42.678;23.332;2023-08-06T01:48:44;93358.13;;;18.39;100.00
13209;BME280;6669;42.678;23.332;2023-08-06T01:51:12;93353.03;;;18.27;100.00
13209;BME280;6669;42.678;23.332;2023-08-06T01:53:41;93356.41;;;18.22;100.00
13209;BME280;6669;42.678;23.332;2023-08-06T01:56:09;93357.53;;;18.26;100.00
13209;BME280;6669;42.678;23.332;2023-08-06T01:58:37;93349.44;;;18.06;100.00
13209;BME280;6669;42.678;23.332;2023-08-06T02:01:05;93362.63;;;18.11;100.00
13209;BME280;6669;42.678;23.332;2023-08-06T02:03:33;93341.81;;;18.04;100.00
13209;BME280;6669;42.678;23.332;2023-08-06T02:06:02;93343.41;;;18.05;100.00
13209;BME280;6669;42.678;23.332;2023-08-06T02:08:30;93338.69;;;18.07;100.00
13209;BME280;6669;42.678;23.332;2023-08-06T02:10:59;93334.47;;;18.06;100.00
13209;BME280;6669;42.678;23.332;2023-08-06T02:13:28;93337.25;;;17.94;100.00
13209;BME280;6669;42.678;23.332;2023-08-06T02:15:56;93340.44;;;17.96;100.00
13209;BME280;6669;42.678;23.332;2023-08-06T02:18:24;93353.88;;;18.00;100.00
13209;BME280;6669;42.678;23.332;2023-08-06T02:20:55;93352.28;;;17.99;100.00
13209;BME280;6669;42.678;23.332;2023-08-06T02:23:24;93367.16;;;17.88;100.00
13209;BME280;6669;42.678;23.332;2023-08-06T02:26:02;93377.22;;;17.69;100.00
13209;BME280;6669;42.678;23.332;2023-08-06T02:28:31;93382.78;;;17.78;100.00
13209;BME280;6669;42.678;23.332;2023-08-06T02:30:59;93352.63;;;17.80;100.00
13209;BME280;6669;42.678;23.332;2023-08-06T02:33:27;93349.63;;;17.72;100.00
13209;BME280;6669;42.678;23.332;2023-08-06T02:36:02;93356.34;;;17.62;100.00
13209;BME280;6669;42.678;23.332;2023-08-06T02:38:31;93361.91;;;17.66;100.00
13209;BME280;6669;42.678;23.332;2023-08-06T02:41:02;93388.81;;;17.73;100.00
13209;BME280;6669;42.678;23.332;2023-08-06T02:43:30;93396.13;;;17.71;100.00
13209;BME280;6669;42.678;23.332;2023-08-06T02:45:59;93412.88;;;17.65;100.00
13209;BME280;6669;42.678;23.332;2023-08-06T02:48:28;93388.88;;;17.56;100.00
13209;BME280;6669;42.678;23.332;2023-08-06T02:50:57;93377.44;;;17.68;100.00
13209;BME280;6669;42.678;23.332;2023-08-06T02:53:26;93363.13;;;17.80;100.00
13209;BME280;6669;42.678;23.332;2023-08-06T02:55:54;93330.94;;;17.95;100.00
13209;BME280;6669;42.678;23.332;2023-08-06T02:58:24;93358.44;;;18.10;100.00
13209;BME280;6669;42.678;23.332;2023-08-06T03:00:59;93341.16;;;18.19;100.00
13209;BME280;6669;42.678;23.332;2023-08-06T03:03:27;93324.41;;;18.30;100.00
13209;BME280;6669;42.678;23.332;2023-08-06T03:05:55;93337.31;;;18.32;100.00
13209;BME280;6669;42.678;23.332;2023-08-06T03:08:23;93334.13;;;18.30;100.00
13209;BME280;6669;42.678;23.332;2023-08-06T03:10:52;93299.22;;;18.40;100.00
13209;BME280;6669;42.678;23.332;2023-08-06T03:13:20;93292.88;;;18.36;100.00
13209;BME280;6669;42.678;23.332;2023-08-06T03:15:53;93335.78;;;18.41;100.00
13209;BME280;6669;42.678;23.332;2023-08-06T03:18:22;93345.59;;;18.19;100.00
13209;BME280;6669;42.678;23.332;2023-08-06T03:20:50;93322.47;;;18.21;100.00
13209;BME280;6669;42.678;23.332;2023-08-06T03:23:18;93289.81;;;18.11;100.00
13209;BME280;6669;42.678;23.332;2023-08-06T03:25:46;93291.44;;;18.18;100.00
13209;BME280;6669;42.678;23.332;2023-08-06T03:28:14;93314.41;;;18.33;100.00
13209;BME280;6669;42.678;23.332;2023-08-06T03:30:43;93343.78;;;18.19;100.00
13209;BME280;6669;42.678;23.332;2023-08-06T03:33:12;93372.97;;;18.18;100.00
13209;BME280;6669;42.678;23.332;2023-08-06T03:35:40;93374.03;;;18.22;100.00
13209;BME280;6669;42.678;23.332;2023-08-06T03:38:08;93384.25;;;18.18;100.00
13209;BME280;6669;42.678;23.332;2023-08-06T03:40:36;93362.88;;;18.37;100.00
13209;BME280;6669;42.678;23.332;2023-08-06T03:43:04;93345.53;;;18.41;100.00
13209;BME280;6669;42.678;23.332;2023-08-06T03:45:32;93367.69;;;18.50;100.00
13209;BME280;6669;42.678;23.332;2023-08-06T03:48:00;93369.78;;;18.48;100.00
13209;BME280;6669;42.678;23.332;2023-08-06T03:50:29;93358.19;;;18.49;100.00
13209;BME280;6669;42.678;23.332;2023-08-06T03:52:57;93349.84;;;18.57;100.00
13209;BME280;6669;42.678;23.332;2023-08-06T03:55:25;93362.47;;;18.55;100.00
13209;BME280;6669;42.678;23.332;2023-08-06T03:57:53;93370.34;;;18.55;100.00
13209;BME280;6669;42.678;23.332;2023-08-06T04:00:21;93380.91;;;18.60;100.00
13209;BME280;6669;42.678;23.332;2023-08-06T04:02:49;93373.06;;;18.66;100.00
13209;BME280;6669;42.678;23.332;2023-08-06T04:05:17;93381.78;;;18.71;100.00
13209;BME280;6669;42.678;23.332;2023-08-06T04:07:46;93391.59;;;18.81;100.00
13209;BME280;6669;42.678;23.332;2023-08-06T04:10:14;93395.81;;;18.82;100.00
13209;BME280;6669;42.678;23.332;2023-08-06T04:12:42;93399.84;;;18.90;100.00
13209;BME280;6669;42.678;23.332;2023-08-06T04:15:10;93397.44;;;18.88;100.00
13209;BME280;6669;42.678;23.332;2023-08-06T04:17:38;93389.38;;;19.00;100.00
13209;BME280;6669;42.678;23.332;2023-08-06T04:20:07;93378.38;;;18.76;100.00
13209;BME280;6669;42.678;23.332;2023-08-06T04:22:35;93374.97;;;18.75;100.00
13209;BME280;6669;42.678;23.332;2023-08-06T04:25:06;93381.09;;;18.81;100.00
13209;BME280;6669;42.678;23.332;2023-08-06T04:27:34;93369.44;;;18.77;100.00
13209;BME280;6669;42.678;23.332;2023-08-06T04:30:05;93369.44;;;18.77;100.00
13209;BME280;6669;42.678;23.332;2023-08-06T04:32:35;93371.34;;;18.82;100.00
13209;BME280;6669;42.678;23.332;2023-08-06T04:35:04;93364.66;;;18.69;100.00
13209;BME280;6669;42.678;23.332;2023-08-06T04:37:32;93360.50;;;18.78;100.00
13209;BME280;6669;42.678;23.332;2023-08-06T04:40:00;93334.72;;;18.75;100.00
13209;BME280;6669;42.678;23.332;2023-08-06T04:42:29;93332.63;;;18.82;100.00
13209;BME280;6669;42.678;23.332;2023-08-06T04:44:56;93339.28;;;18.90;100.00
13209;BME280;6669;42.678;23.332;2023-08-06T04:47:24;93330.34;;;18.91;100.00
13209;BME280;6669;42.678;23.332;2023-08-06T04:49:53;93319.25;;;18.89;100.00
13209;BME280;6669;42.678;23.332;2023-08-06T04:52:21;93317.41;;;18.89;100.00
13209;BME280;6669;42.678;23.332;2023-08-06T04:54:50;93294.69;;;18.78;100.00
13209;BME280;6669;42.678;23.332;2023-08-06T04:57:18;93297.88;;;18.80;100.00
13209;BME280;6669;42.678;23.332;2023-08-06T04:59:47;93290.53;;;18.87;100.00
13209;BME280;6669;42.678;23.332;2023-08-06T05:02:16;93286.22;;;18.71;100.00
13209;BME280;6669;42.678;23.332;2023-08-06T05:04:44;93292.31;;;18.71;100.00
13209;BME280;6669;42.678;23.332;2023-08-06T05:07:12;93287.78;;;18.67;100.00
13209;BME280;6669;42.678;23.332;2023-08-06T05:09:40;93291.00;;;18.74;100.00
13209;BME280;6669;42.678;23.332;2023-08-06T05:12:09;93300.59;;;18.90;100.00
13209;BME280;6669;42.678;23.332;2023-08-06T05:14:37;93301.94;;;18.98;100.00
13209;BME280;6669;42.678;23.332;2023-08-06T05:17:06;93307.78;;;19.10;100.00
13209;BME280;6669;42.678;23.332;2023-08-06T05:19:34;93304.91;;;19.17;100.00
13209;BME280;6669;42.678;23.332;2023-08-06T05:22:02;93311.00;;;19.28;100.00
13209;BME280;6669;42.678;23.332;2023-08-06T05:24:31;93320.72;;;19.17;100.00
13209;BME280;6669;42.678;23.332;2023-08-06T05:26:59;93314.44;;;19.23;100.00
13209;BME280;6669;42.678;23.332;2023-08-06T05:29:26;93324.94;;;19.13;100.00
13209;BME280;6669;42.678;23.332;2023-08-06T05:31:54;93308.28;;;19.07;100.00
13209;BME280;6669;42.678;23.332;2023-08-06T05:34:24;93302.31;;;19.22;100.00
13209;BME280;6669;42.678;23.332;2023-08-06T05:36:52;93283.59;;;19.24;100.00
13209;BME280;6669;42.678;23.332;2023-08-06T05:39:20;93297.94;;;19.54;100.00
13209;BME280;6669;42.678;23.332;2023-08-06T05:41:48;93297.69;;;19.76;100.00
13209;BME280;6669;42.678;23.332;2023-08-06T05:44:17;93299.03;;;19.84;100.00
13209;BME280;6669;42.678;23.332;2023-08-06T05:46:45;93296.09;;;19.75;100.00
13209;BME280;6669;42.678;23.332;2023-08-06T05:49:13;93285.25;;;19.56;100.00
13209;BME280;6669;42.678;23.332;2023-08-06T05:51:42;93289.22;;;19.64;100.00
13209;BME280;6669;42.678;23.332;2023-08-06T05:54:10;93300.31;;;19.66;100.00
13209;BME280;6669;42.678;23.332;2023-08-06T05:56:38;93300.06;;;19.77;100.00
13209;BME280;6669;42.678;23.332;2023-08-06T05:59:06;93309.81;;;19.67;100.00
13209;BME280;6669;42.678;23.332;2023-08-06T06:01:34;93306.97;;;19.84;100.00
13209;BME280;6669;42.678;23.332;2023-08-06T06:04:03;93311.97;;;19.90;100.00
13209;BME280;6669;42.678;23.332;2023-08-06T06:06:31;93321.44;;;19.81;100.00
13209;BME280;6669;42.678;23.332;2023-08-06T06:09:00;93328.56;;;19.81;100.00
13209;BME280;6669;42.678;23.332;2023-08-06T06:11:29;93312.47;;;19.77;100.00
13209;BME280;6669;42.678;23.332;2023-08-06T06:13:56;93326.69;;;19.76;100.00
13209;BME280;6669;42.678;23.332;2023-08-06T06:16:24;93322.44;;;19.70;100.00
13209;BME280;6669;42.678;23.332;2023-08-06T06:18:52;93337.25;;;19.81;100.00
13209;BME280;6669;42.678;23.332;2023-08-06T06:21:21;93338.09;;;19.87;100.00
13209;BME280;6669;42.678;23.332;2023-08-06T06:23:49;93351.03;;;20.09;100.00
13209;BME280;6669;42.678;23.332;2023-08-06T06:26:19;93360.81;;;20.24;100.00
13209;BME280;6669;42.678;23.332;2023-08-06T06:28:47;93358.97;;;20.35;100.00
13209;BME280;6669;42.678;23.332;2023-08-06T06:31:15;93357.91;;;20.51;100.00
13209;BME280;6669;42.678;23.332;2023-08-06T06:33:43;93357.66;;;20.63;100.00
13209;BME280;6669;42.678;23.332;2023-08-06T06:36:11;93353.44;;;20.41;100.00
13209;BME280;6669;42.678;23.332;2023-08-06T06:38:39;93365.81;;;20.62;100.00
13209;BME280;6669;42.678;23.332;2023-08-06T06:41:07;93375.31;;;20.83;100.00
13209;BME280;6669;42.678;23.332;2023-08-06T06:43:37;93380.09;;;20.86;100.00
13209;BME280;6669;42.678;23.332;2023-08-06T06:46:06;93380.88;;;20.87;100.00
13209;BME280;6669;42.678;23.332;2023-08-06T06:48:34;93381.44;;;20.73;100.00
13209;BME280;6669;42.678;23.332;2023-08-06T06:51:02;93395.69;;;20.78;100.00
13209;BME280;6669;42.678;23.332;2023-08-06T06:53:30;93392.78;;;20.74;100.00
13209;BME280;6669;42.678;23.332;2023-08-06T06:56:02;93381.41;;;20.68;100.00
13209;BME280;6669;42.678;23.332;2023-08-06T06:58:30;93409.13;;;20.66;100.00
13209;BME280;6669;42.678;23.332;2023-08-06T07:00:59;93401.75;;;20.73;100.00
13209;BME280;6669;42.678;23.332;2023-08-06T07:03:27;93413.38;;;20.77;100.00
13209;BME280;6669;42.678;23.332;2023-08-06T07:05:57;93406.50;;;20.86;100.00
13209;BME280;6669;42.678;23.332;2023-08-06T07:08:26;93415.44;;;21.06;100.00
13209;BME280;6669;42.678;23.332;2023-08-06T07:11:00;93413.84;;;21.10;100.00
13209;BME280;6669;42.678;23.332;2023-08-06T07:13:31;93417.28;;;21.11;100.00
13209;BME280;6669;42.678;23.332;2023-08-06T07:16:01;93433.94;;;21.01;100.00
13209;BME280;6669;42.678;23.332;2023-08-06T07:18:29;93445.31;;;20.76;100.00
13209;BME280;6669;42.678;23.332;2023-08-06T07:20:57;93453.22;;;20.81;100.00
13209;BME280;6669;42.678;23.332;2023-08-06T07:23:25;93438.97;;;20.71;100.00
13209;BME280;6669;42.678;23.332;2023-08-06T07:25:53;93419.69;;;20.61;100.00
13209;BME280;6669;42.678;23.332;2023-08-06T07:28:21;93434.44;;;20.56;100.00
13209;BME280;6669;42.678;23.332;2023-08-06T07:30:50;93437.38;;;20.65;100.00
13209;BME280;6669;42.678;23.332;2023-08-06T07:33:19;93433.69;;;20.71;100.00
13209;BME280;6669;42.678;23.332;2023-08-06T07:35:47;93438.19;;;20.81;100.00
13209;BME280;6669;42.678;23.332;2023-08-06T07:38:15;93432.91;;;20.86;100.00
13209;BME280;6669;42.678;23.332;2023-08-06T07:40:44;93440.03;;;20.86;100.00
13209;BME280;6669;42.678;23.332;2023-08-06T07:43:12;93436.34;;;20.87;100.00
13209;BME280;6669;42.678;23.332;2023-08-06T07:45:40;93423.09;;;21.07;100.00
13209;BME280;6669;42.678;23.332;2023-08-06T07:48:08;93424.91;;;21.33;100.00
13209;BME280;6669;42.678;23.332;2023-08-06T07:50:38;93415.38;;;21.42;100.00
13209;BME280;6669;42.678;23.332;2023-08-06T07:53:05;93434.63;;;21.63;100.00
13209;BME280;6669;42.678;23.332;2023-08-06T07:55:33;93423.00;;;21.54;100.00
13209;BME280;6669;42.678;23.332;2023-08-06T07:58:01;93424.28;;;21.72;100.00
13209;BME280;6669;42.678;23.332;2023-08-06T08:00:30;93425.84;;;21.78;100.00
13209;BME280;6669;42.678;23.332;2023-08-06T08:02:58;93423.94;;;21.94;100.00
13209;BME280;6669;42.678;23.332;2023-08-06T08:05:26;93404.22;;;22.16;100.00
13209;BME280;6669;42.678;23.332;2023-08-06T08:07:56;93393.59;;;22.21;100.00
13209;BME280;6669;42.678;23.332;2023-08-06T08:10:24;93413.94;;;22.26;100.00
13209;BME280;6669;42.678;23.332;2023-08-06T08:12:52;93412.69;;;22.13;100.00
13209;BME280;6669;42.678;23.332;2023-08-06T08:15:20;93422.78;;;22.05;100.00
13209;BME280;6669;42.678;23.332;2023-08-06T08:17:48;93416.34;;;22.22;100.00
13209;BME280;6669;42.678;23.332;2023-08-06T08:20:16;93421.84;;;22.31;100.00
13209;BME280;6669;42.678;23.332;2023-08-06T08:22:44;93416.13;;;22.18;100.00
13209;BME280;6669;42.678;23.332;2023-08-06T08:25:14;93415.59;;;22.16;100.00
13209;BME280;6669;42.678;23.332;2023-08-06T08:27:43;93430.44;;;22.12;100.00
13209;BME280;6669;42.678;23.332;2023-08-06T08:30:11;93423.75;;;22.25;100.00
13209;BME280;6669;42.678;23.332;2023-08-06T08:32:39;93424.09;;;22.13;100.00
13209;BME280;6669;42.678;23.332;2023-08-06T08:35:07;93432.00;;;22.18;100.00
13209;BME280;6669;42.678;23.332;2023-08-06T08:37:36;93433.38;;;22.11;100.00
13209;BME280;6669;42.678;23.332;2023-08-06T08:40:05;93418.16;;;22.32;100.00
13209;BME280;6669;42.678;23.332;2023-08-06T08:42:35;93433.22;;;22.42;100.00
13209;BME280;6669;42.678;23.332;2023-08-06T08:45:04;93436.31;;;22.49;100.00
13209;BME280;6669;42.678;23.332;2023-08-06T08:47:36;93415.69;;;22.46;100.00
13209;BME280;6669;42.678;23.332;2023-08-06T08:50:06;93423.47;;;22.66;100.00
13209;BME280;6669;42.678;23.332;2023-08-06T08:52:35;93409.56;;;22.85;100.00
13209;BME280;6669;42.678;23.332;2023-08-06T08:55:05;93416.47;;;22.86;100.00
13209;BME280;6669;42.678;23.332;2023-08-06T08:57:35;93403.91;;;22.97;100.00
13209;BME280;6669;42.678;23.332;2023-08-06T09:00:04;93409.50;;;23.25;100.00
13209;BME280;6669;42.678;23.332;2023-08-06T09:02:33;93398.38;;;23.23;100.00
13209;BME280;6669;42.678;23.332;2023-08-06T09:05:03;93378.69;;;23.29;100.00
13209;BME280;6669;42.678;23.332;2023-08-06T09:07:35;93405.31;;;23.18;100.00
13209;BME280;6669;42.678;23.332;2023-08-06T09:10:07;93401.00;;;22.93;100.00
13209;BME280;6669;42.678;23.332;2023-08-06T09:12:39;93398.16;;;22.84;100.00
13209;BME280;6669;42.678;23.332;2023-08-06T09:15:08;93384.53;;;22.72;100.00
13209;BME280;6669;42.678;23.332;2023-08-06T09:17:36;93394.31;;;23.01;100.00
13209;BME280;6669;42.678;23.332;2023-08-06T09:20:11;93383.56;;;23.22;100.00
13209;BME280;6669;42.678;23.332;2023-08-06T09:22:39;93375.97;;;23.34;100.00
13209;BME280;6669;42.678;23.332;2023-08-06T09:25:08;93380.31;;;23.49;100.00
13209;BME280;6669;42.678;23.332;2023-08-06T09:27:38;93382.81;;;23.40;100.00
13209;BME280;6669;42.678;23.332;2023-08-06T09:30:07;93383.06;;;23.14;100.00
13209;BME280;6669;42.678;23.332;2023-08-06T09:32:45;93377.38;;;23.26;100.00
13209;BME280;6669;42.678;23.332;2023-08-06T09:35:18;93375.38;;;23.42;100.00
13209;BME280;6669;42.678;23.332;2023-08-06T09:37:46;93378.84;;;23.62;100.00
13209;BME280;6669;42.678;23.332;2023-08-06T09:40:24;93364.97;;;23.70;100.00
13209;BME280;6669;42.678;23.332;2023-08-06T09:42:54;93372.41;;;23.68;100.00
13209;BME280;6669;42.678;23.332;2023-08-06T09:45:23;93367.56;;;23.75;100.00
13209;BME280;6669;42.678;23.332;2023-08-06T09:47:55;93351.16;;;23.92;100.00
13209;BME280;6669;42.678;23.332;2023-08-06T09:50:28;93367.66;;;24.27;100.00
13209;BME280;6669;42.678;23.332;2023-08-06T09:52:57;93352.13;;;24.35;100.00
13209;BME280;6669;42.678;23.332;2023-08-06T09:55:25;93378.94;;;24.71;100.00
13209;BME280;6669;42.678;23.332;2023-08-06T09:57:55;93383.56;;;24.46;100.00
13209;BME280;6669;42.678;23.332;2023-08-06T10:00:24;93372.81;;;24.38;100.00
13209;BME280;6669;42.678;23.332;2023-08-06T10:02:52;93375.41;;;24.24;100.00
13209;BME280;6669;42.678;23.332;2023-08-06T10:05:23;93373.31;;;24.21;100.00
13209;BME280;6669;42.678;23.332;2023-08-06T10:07:53;93373.28;;;24.07;100.00
13209;BME280;6669;42.678;23.332;2023-08-06T10:10:22;93396.44;;;23.77;100.00
13209;BME280;6669;42.678;23.332;2023-08-06T10:12:52;93379.66;;;23.62;100.00
13209;BME280;6669;42.678;23.332;2023-08-06T10:15:26;93391.88;;;23.58;100.00
13209;BME280;6669;42.678;23.332;2023-08-06T10:17:57;93388.75;;;23.56;100.00
13209;BME280;6669;42.678;23.332;2023-08-06T10:20:25;93383.84;;;23.63;100.00
13209;BME280;6669;42.678;23.332;2023-08-06T10:23:01;93391.00;;;23.87;100.00
13209;BME280;6669;42.678;23.332;2023-08-06T10:25:32;93378.00;;;24.10;100.00
13209;BME280;6669;42.678;23.332;2023-08-06T10:28:07;93384.59;;;24.12;100.00
13209;BME280;6669;42.678;23.332;2023-08-06T10:30:43;93368.44;;;24.09;100.00
13209;BME280;6669;42.678;23.332;2023-08-06T10:33:16;93394.16;;;23.89;100.00
13209;BME280;6669;42.678;23.332;2023-08-06T10:35:48;93381.88;;;23.98;100.00
13209;BME280;6669;42.678;23.332;2023-08-06T10:38:18;93385.66;;;24.11;100.00
13209;BME280;6669;42.678;23.332;2023-08-06T10:40:49;93393.00;;;24.20;100.00
13209;BME280;6669;42.678;23.332;2023-08-06T10:43:28;93401.03;;;24.14;100.00
13209;BME280;6669;42.678;23.332;2023-08-06T10:45:58;93407.03;;;24.01;100.00
13209;BME280;6669;42.678;23.332;2023-08-06T10:48:30;93406.22;;;23.81;100.00
13209;BME280;6669;42.678;23.332;2023-08-06T10:51:00;93414.50;;;23.75;100.00
13209;BME280;6669;42.678;23.332;2023-08-06T10:53:29;93413.78;;;23.69;100.00
13209;BME280;6669;42.678;23.332;2023-08-06T10:56:00;93409.47;;;23.73;100.00
13209;BME280;6669;42.678;23.332;2023-08-06T10:58:31;93417.09;;;23.80;100.00
13209;BME280;6669;42.678;23.332;2023-08-06T11:01:01;93430.59;;;23.83;100.00
13209;BME280;6669;42.678;23.332;2023-08-06T11:03:29;93422.88;;;23.63;100.00
13209;BME280;6669;42.678;23.332;2023-08-06T11:05:57;93435.28;;;23.67;100.00
13209;BME280;6669;42.678;23.332;2023-08-06T11:08:26;93410.19;;;23.60;100.00
13209;BME280;6669;42.678;23.332;2023-08-06T11:10:54;93431.09;;;23.86;100.00
13209;BME280;6669;42.678;23.332;2023-08-06T11:13:29;93438.59;;;23.78;100.00
13209;BME280;6669;42.678;23.332;2023-08-06T11:15:59;93437.88;;;23.73;100.00
13209;BME280;6669;42.678;23.332;2023-08-06T11:18:28;93424.78;;;23.81;100.00
13209;BME280;6669;42.678;23.332;2023-08-06T11:20:58;93439.47;;;23.98;100.00
13209;BME280;6669;42.678;23.332;2023-08-06T11:23:27;93455.66;;;23.18;100.00
13209;BME280;6669;42.678;23.332;2023-08-06T11:25:56;93474.50;;;21.82;100.00
13209;BME280;6669;42.678;23.332;2023-08-06T11:28:24;93469.84;;;20.66;100.00
13209;BME280;6669;42.678;23.332;2023-08-06T11:30:53;93466.97;;;19.78;100.00
13209;BME280;6669;42.678;23.332;2023-08-06T11:33:22;93453.91;;;19.46;100.00
13209;BME280;6669;42.678;23.332;2023-08-06T11:35:54;93447.25;;;19.33;100.00
13209;BME280;6669;42.678;23.332;2023-08-06T11:38:24;93444.31;;;19.29;100.00
13209;BME280;6669;42.678;23.332;2023-08-06T11:40:53;93457.41;;;19.62;100.00
13209;BME280;6669;42.678;23.332;2023-08-06T11:43:21;93444.44;;;20.29;100.00
13209;BME280;6669;42.678;23.332;2023-08-06T11:45:50;93437.59;;;21.41;100.00
13209;BME280;6669;42.678;23.332;2023-08-06T11:48:20;93431.41;;;22.27;100.00
13209;BME280;6669;42.678;23.332;2023-08-06T11:50:48;93437.09;;;22.55;100.00
13209;BME280;6669;42.678;23.332;2023-08-06T11:53:18;93443.25;;;23.14;100.00
13209;BME280;6669;42.678;23.332;2023-08-06T11:55:46;93441.38;;;23.92;100.00
13209;BME280;6669;42.678;23.332;2023-08-06T11:58:16;93436.75;;;24.79;100.00
13209;BME280;6669;42.678;23.332;2023-08-06T12:00:44;93428.34;;;25.38;100.00
13209;BME280;6669;42.678;23.332;2023-08-06T12:03:12;93428.50;;;26.25;100.00
13209;BME280;6669;42.678;23.332;2023-08-06T12:05:44;93417.84;;;26.62;100.00
13209;BME280;6669;42.678;23.332;2023-08-06T12:08:13;93416.84;;;26.35;100.00
13209;BME280;6669;42.678;23.332;2023-08-06T12:10:42;93431.44;;;27.20;100.00
13209;BME280;6669;42.678;23.332;2023-08-06T12:13:11;93414.16;;;27.49;100.00
13209;BME280;6669;42.678;23.332;2023-08-06T12:15:39;93418.88;;;28.01;100.00
13209;BME280;6669;42.678;23.332;2023-08-06T12:18:07;93414.22;;;28.59;100.00
13209;BME280;6669;42.678;23.332;2023-08-06T12:20:36;93411.88;;;28.84;100.00
13209;BME280;6669;42.678;23.332;2023-08-06T12:23:05;93400.84;;;28.15;100.00
13209;BME280;6669;42.678;23.332;2023-08-06T12:25:33;93408.25;;;27.69;100.00
13209;BME280;6669;42.678;23.332;2023-08-06T12:28:02;93415.72;;;27.50;100.00
13209;BME280;6669;42.678;23.332;2023-08-06T12:30:32;93418.34;;;26.64;100.00
13209;BME280;6669;42.678;23.332;2023-08-06T12:33:00;93415.75;;;25.58;100.00
13209;BME280;6669;42.678;23.332;2023-08-06T12:35:28;93411.56;;;25.24;100.00
13209;BME280;6669;42.678;23.332;2023-08-06T12:37:56;93416.06;;;25.09;100.00
13209;BME280;6669;42.678;23.332;2023-08-06T12:40:25;93414.47;;;25.08;100.00
13209;BME280;6669;42.678;23.332;2023-08-06T12:43:03;93418.13;;;24.99;100.00
13209;BME280;6669;42.678;23.332;2023-08-06T12:45:31;93406.69;;;24.98;100.00
13209;BME280;6669;42.678;23.332;2023-08-06T12:48:02;93404.94;;;25.07;100.00
13209;BME280;6669;42.678;23.332;2023-08-06T12:50:30;93397.41;;;24.95;100.00
13209;BME280;6669;42.678;23.332;2023-08-06T12:53:00;93402.59;;;24.87;100.00
13209;BME280;6669;42.678;23.332;2023-08-06T12:55:28;93393.03;;;25.05;100.00
13209;BME280;6669;42.678;23.332;2023-08-06T12:57:59;93408.16;;;25.04;100.00
13209;BME280;6669;42.678;23.332;2023-08-06T13:00:28;93393.81;;;25.19;100.00